メインページ
METAR-TAF:

METAR-TAF

空港 :

フンシャル, マデイラ諸島, ポルトガル

マデイラ空港

緯度: 32-41-52N, 経度: 016-46-28W, 海抜: 59m

現時点の気象観測

当レポートは32分前の23:00(UTC)に作成
の風 3kt、西から北/北東の間で変化する
気温 19°C
湿度 73%
気圧 1019 hPa
視程10km以上
高度1500ftの雲はほとんどない

METAR: LPMA 232300Z 35003KT 270V030 9999 FEW015 19/14 Q1019

時間: 00:32 (23:32 UTC)

予報

当レポートは6時間32分前の17:00(UTC)に作成
予報は23日の 18時(UTC)から 24日の 18時(UTC)まで有効
変向風 5kt
視程10km以上
高度1500ftの雲は散在している
23日の 18時(UTC)から 24日の 18時(UTC)まで一時的に
高度1500ftの雲はほとんどない
高度3000ftの千切れ雲あり

TAF: LPMA 231700Z 2318/2418 VRB05KT 9999 SCT015 TEMPO 2318/2418 FEW015 BKN030

4,000以上の空港の気象観測と天気予報(METAR報とTAF報)

利用可能な観測所は地図上に黄色い丸と赤い丸で示す。

丸の上にカーソルを重ねると観測所名を参照できる。

次にクリックすると気象観測と天気予報を参照できる。

マップの切り替え:黒色「×」印の緑ボタンをクリックして拡大、「-」印の緑ボタンをクリックして縮小、緑色の三角印をクリックして隣りの地図に切り替え


METAR-TAF: